createdAt,value
2019-01-27T00:01:29.314Z,27.10
2019-01-27T00:03:56.697Z,24.23
2019-01-27T00:06:24.159Z,25.60
2019-01-27T00:08:51.890Z,27.43
2019-01-27T00:11:19.267Z,38.43
2019-01-27T00:13:46.722Z,24.00
2019-01-27T00:16:14.458Z,25.53
2019-01-27T00:18:41.853Z,23.40
2019-01-27T00:21:09.360Z,46.60
2019-01-27T00:23:36.763Z,25.27
2019-01-27T00:26:04.318Z,33.83
2019-01-27T00:28:31.844Z,24.90
2019-01-27T00:30:59.335Z,54.27
2019-01-27T00:33:26.780Z,67.93
2019-01-27T00:35:54.200Z,24.27
2019-01-27T00:38:21.903Z,115.20
2019-01-27T00:40:49.634Z,110.97
2019-01-27T00:43:17.239Z,125.00
2019-01-27T00:45:44.584Z,171.60
2019-01-27T00:48:12.413Z,68.47
2019-01-27T00:50:39.851Z,58.40
2019-01-27T00:53:07.214Z,27.27
2019-01-27T00:55:34.580Z,29.70
2019-01-27T00:58:01.991Z,25.87
2019-01-27T01:00:29.451Z,30.73
2019-01-27T01:02:56.931Z,26.00
2019-01-27T01:05:24.671Z,22.60
2019-01-27T01:07:52.070Z,28.23
2019-01-27T01:10:20.174Z,22.77
2019-01-27T01:12:48.673Z,43.47
2019-01-27T01:15:17.279Z,22.73
2019-01-27T01:17:44.733Z,102.97
2019-01-27T01:20:14.684Z,22.67
2019-01-27T01:22:42.161Z,24.10
2019-01-27T01:25:12.494Z,26.33
2019-01-27T01:27:39.972Z,23.60
2019-01-27T01:30:08.563Z,22.37
2019-01-27T01:32:35.915Z,24.60
2019-01-27T01:35:04.614Z,26.03
2019-01-27T01:37:31.991Z,19.17
2019-01-27T01:39:59.371Z,21.13
2019-01-27T01:42:26.831Z,31.80
2019-01-27T01:44:54.354Z,27.97
2019-01-27T01:47:21.806Z,31.20
2019-01-27T01:49:49.271Z,34.60
2019-01-27T01:52:16.712Z,29.73
2019-01-27T01:54:44.406Z,33.13
2019-01-27T01:57:11.777Z,28.43
2019-01-27T01:59:39.217Z,25.23
2019-01-27T02:02:06.737Z,23.77
2019-01-27T02:04:34.117Z,24.37
2019-01-27T02:07:01.550Z,24.07
2019-01-27T02:09:28.911Z,24.93
2019-01-27T02:11:56.263Z,23.30
2019-01-27T02:14:24.593Z,23.13
2019-01-27T02:16:51.994Z,22.93
2019-01-27T02:19:19.351Z,20.63
2019-01-27T02:21:47.474Z,22.20
2019-01-27T02:24:14.851Z,24.20
2019-01-27T02:26:42.210Z,22.13
2019-01-27T02:29:09.651Z,23.73
2019-01-27T02:31:37.068Z,21.93
2019-01-27T02:34:04.971Z,23.33
2019-01-27T02:36:32.428Z,26.97
2019-01-27T02:38:59.895Z,25.67
2019-01-27T02:41:27.276Z,25.20
2019-01-27T02:43:54.687Z,25.20
2019-01-27T02:46:22.113Z,27.10
2019-01-27T02:48:49.471Z,23.40
2019-01-27T02:51:16.994Z,23.27
2019-01-27T02:53:44.417Z,23.03
2019-01-27T02:56:11.801Z,25.40
2019-01-27T02:58:39.151Z,21.63
2019-01-27T03:01:06.783Z,22.50
2019-01-27T03:03:34.231Z,25.37
2019-01-27T03:06:19.759Z,25.97
2019-01-27T03:08:58.990Z,25.93
2019-01-27T03:11:26.544Z,25.87
2019-01-27T03:13:53.951Z,23.30
2019-01-27T03:16:21.352Z,29.67
2019-01-27T03:18:48.754Z,28.97
2019-01-27T03:21:16.156Z,29.87
2019-01-27T03:23:43.552Z,32.60
2019-01-27T03:26:10.991Z,45.03
2019-01-27T03:28:38.745Z,30.63
2019-01-27T03:31:06.179Z,25.03
2019-01-27T03:33:33.650Z,25.07
2019-01-27T03:36:01.033Z,26.67
2019-01-27T03:38:28.441Z,21.13
2019-01-27T03:40:56.225Z,23.63
2019-01-27T03:43:23.583Z,21.10
2019-01-27T03:45:50.973Z,25.97
2019-01-27T03:48:18.826Z,23.63
2019-01-27T03:50:46.233Z,24.73
2019-01-27T03:53:13.653Z,26.50
2019-01-27T03:55:41.073Z,24.00
2019-01-27T03:58:08.772Z,25.00
2019-01-27T04:00:36.160Z,23.60
2019-01-27T04:03:03.575Z,24.53
2019-01-27T04:05:31.038Z,27.63
2019-01-27T04:07:58.466Z,33.80
2019-01-27T04:10:25.903Z,28.70
2019-01-27T04:12:53.311Z,30.27
2019-01-27T04:15:20.951Z,29.37
2019-01-27T04:17:48.371Z,27.03
2019-01-27T04:20:17.652Z,26.00
2019-01-27T04:22:45.216Z,25.50
2019-01-27T04:25:13.917Z,26.17
2019-01-27T04:27:41.302Z,28.27
2019-01-27T04:30:14.494Z,32.17
2019-01-27T04:32:41.881Z,64.33
2019-01-27T04:35:10.371Z,51.20
2019-01-27T04:37:37.783Z,27.33
2019-01-27T04:40:07.507Z,29.63
2019-01-27T04:42:34.872Z,35.57
2019-01-27T04:45:02.613Z,27.27
2019-01-27T04:47:30.027Z,27.70
2019-01-27T04:49:57.472Z,25.03
2019-01-27T04:52:24.866Z,24.87
2019-01-27T04:54:52.293Z,23.73
2019-01-27T04:57:19.671Z,29.30
2019-01-27T04:59:47.425Z,27.83
2019-01-27T05:02:15.191Z,35.00
2019-01-27T05:04:42.908Z,32.30
2019-01-27T05:07:10.294Z,41.50
2019-01-27T05:09:37.690Z,29.07
2019-01-27T05:12:05.295Z,31.67
2019-01-27T05:14:32.664Z,28.50
2019-01-27T05:17:00.050Z,26.07
2019-01-27T05:19:27.471Z,25.50
2019-01-27T05:21:54.832Z,25.33
2019-01-27T05:24:22.233Z,29.53
2019-01-27T05:26:49.610Z,26.40
2019-01-27T05:29:16.974Z,30.20
2019-01-27T05:31:44.453Z,29.77
2019-01-27T05:34:11.875Z,29.13
2019-01-27T05:36:39.714Z,31.80
2019-01-27T05:39:07.962Z,38.10
2019-01-27T05:41:35.350Z,43.43
2019-01-27T05:44:02.890Z,37.13
2019-01-27T05:46:30.242Z,36.20
2019-01-27T05:48:57.673Z,32.13
2019-01-27T05:51:25.219Z,38.03
2019-01-27T05:53:52.672Z,34.80
2019-01-27T05:56:20.032Z,39.53
2019-01-27T05:58:47.495Z,34.00
2019-01-27T06:01:14.871Z,34.47
2019-01-27T06:03:42.224Z,35.77
2019-01-27T06:06:09.785Z,35.17
2019-01-27T06:08:37.193Z,42.17
2019-01-27T06:11:04.585Z,63.00
2019-01-27T06:13:31.971Z,47.23
2019-01-27T06:15:59.411Z,45.77
2019-01-27T06:18:26.768Z,48.50
2019-01-27T06:20:54.180Z,44.93
2019-01-27T06:23:21.625Z,46.47
2019-01-27T06:25:49.010Z,38.40
2019-01-27T06:28:16.395Z,42.17
2019-01-27T06:30:43.937Z,39.20
2019-01-27T06:33:22.773Z,35.43
2019-01-27T06:35:50.179Z,39.70
2019-01-27T06:38:17.565Z,39.13
2019-01-27T06:40:45.270Z,45.70
2019-01-27T06:43:12.775Z,45.90
2019-01-27T06:45:40.170Z,41.10
2019-01-27T06:48:07.553Z,41.43
2019-01-27T06:50:34.952Z,41.63
2019-01-27T06:53:02.512Z,38.27
2019-01-27T06:55:29.951Z,45.90
2019-01-27T06:57:57.455Z,36.93
2019-01-27T07:01:02.559Z,44.47
2019-01-27T07:03:49.438Z,32.63
2019-01-27T07:06:36.380Z,38.47
2019-01-27T07:09:44.784Z,38.00
2019-01-27T07:12:34.883Z,33.67
2019-01-27T07:15:21.781Z,29.30
2019-01-27T07:18:08.747Z,33.27
2019-01-27T07:20:55.686Z,43.13
2019-01-27T07:23:36.595Z,42.83
2019-01-27T07:26:20.170Z,40.10
2019-01-27T07:29:15.538Z,36.00
2019-01-27T07:32:01.084Z,45.83
2019-01-27T07:34:49.321Z,44.37
2019-01-27T07:37:42.322Z,40.90
2019-01-27T07:40:38.682Z,41.07
2019-01-27T07:43:19.897Z,41.50
2019-01-27T07:45:55.934Z,35.37
2019-01-27T07:48:34.976Z,34.07
2019-01-27T07:51:37.128Z,40.50
2019-01-27T07:54:24.693Z,40.10
2019-01-27T07:57:10.054Z,54.50
2019-01-27T07:59:56.962Z,47.00
2019-01-27T08:02:35.134Z,43.00
2019-01-27T08:05:16.150Z,42.90
2019-01-27T08:07:53.672Z,41.37
2019-01-27T08:10:44.040Z,47.17
2019-01-27T08:13:26.955Z,35.90
2019-01-27T08:16:23.015Z,41.80
2019-01-27T08:18:57.017Z,46.20
2019-01-27T08:21:53.008Z,46.30
2019-01-27T08:24:30.297Z,48.90
2019-01-27T08:27:22.850Z,44.80
2019-01-27T08:30:19.141Z,49.70
2019-01-27T08:32:57.911Z,41.47
2019-01-27T08:35:41.170Z,40.07
2019-01-27T08:38:31.072Z,38.53
2019-01-27T08:41:23.970Z,40.00
2019-01-27T08:44:11.114Z,40.33
2019-01-27T08:46:43.004Z,38.67
2019-01-27T08:49:10.414Z,40.23
2019-01-27T08:51:37.832Z,49.73
2019-01-27T08:54:06.255Z,43.17
2019-01-27T08:56:33.632Z,53.10
2019-01-27T08:59:13.327Z,67.93
2019-01-27T09:02:02.826Z,72.70
2019-01-27T09:04:52.602Z,44.80
2019-01-27T09:07:38.310Z,46.17
2019-01-27T09:10:16.482Z,39.37
2019-01-27T09:13:11.032Z,41.73
2019-01-27T09:15:53.590Z,35.97
2019-01-27T09:18:29.375Z,38.80
2019-01-27T09:21:16.868Z,38.57
2019-01-27T09:24:09.883Z,34.13
2019-01-27T09:27:14.285Z,33.43
2019-01-27T09:29:51.787Z,35.93
2019-01-27T09:32:37.818Z,34.30
2019-01-27T09:35:25.435Z,36.97
2019-01-27T09:38:39.839Z,32.60
2019-01-27T09:41:29.907Z,32.10
2019-01-27T09:44:15.436Z,32.70
2019-01-27T09:47:02.342Z,32.83
2019-01-27T09:50:01.631Z,29.40
2019-01-27T09:53:00.697Z,27.73
2019-01-27T09:55:50.888Z,30.10
2019-01-27T09:58:36.770Z,29.90
2019-01-27T10:01:23.387Z,31.40
2019-01-27T10:04:09.127Z,36.53
2019-01-27T10:06:56.051Z,27.30
2019-01-27T10:09:51.929Z,30.47
2019-01-27T10:12:29.132Z,28.70
2019-01-27T10:15:14.413Z,28.20
2019-01-27T10:17:52.386Z,24.30
2019-01-27T10:20:43.377Z,22.47
2019-01-27T10:23:22.844Z,28.63
2019-01-27T10:26:01.468Z,27.10
2019-01-27T10:28:57.706Z,27.23
2019-01-27T10:31:44.696Z,29.07
2019-01-27T10:34:34.409Z,27.43
2019-01-27T10:37:12.415Z,26.20
2019-01-27T10:40:09.145Z,24.07
2019-01-27T10:43:00.222Z,25.03
2019-01-27T10:45:40.167Z,21.93
2019-01-27T10:48:33.114Z,23.13
2019-01-27T10:51:19.427Z,20.07
2019-01-27T10:54:11.458Z,19.87
2019-01-27T10:57:01.337Z,20.57
2019-01-27T11:00:00.627Z,16.00
2019-01-27T11:03:05.812Z,17.23
2019-01-27T11:05:52.548Z,17.70
2019-01-27T11:08:51.922Z,19.60
2019-01-27T11:11:35.586Z,16.77
2019-01-27T11:14:24.351Z,15.03
2019-01-27T11:17:17.037Z,22.07
2019-01-27T11:19:51.367Z,18.33
2019-01-27T11:22:31.969Z,22.07
2019-01-27T11:25:34.075Z,16.40
2019-01-27T11:28:21.351Z,23.93
2019-01-27T11:30:58.814Z,19.83
2019-01-27T11:34:04.170Z,14.17
2019-01-27T11:36:53.620Z,19.93
2019-01-27T11:39:38.939Z,19.30
2019-01-27T11:42:34.735Z,15.30
2019-01-27T11:45:12.731Z,15.73
2019-01-27T11:47:51.887Z,16.83
2019-01-27T11:50:30.004Z,17.97
2019-01-27T11:53:01.062Z,16.17
2019-01-27T11:55:30.178Z,16.37
2019-01-27T11:57:58.000Z,15.73
2019-01-27T12:00:34.198Z,18.70
2019-01-27T12:03:01.708Z,15.63
2019-01-27T12:05:30.673Z,16.77
2019-01-27T12:07:58.597Z,17.63
2019-01-27T12:10:26.207Z,17.27
2019-01-27T12:12:54.056Z,15.30
2019-01-27T12:15:22.291Z,15.70
2019-01-27T12:17:49.960Z,14.87
2019-01-27T12:20:17.711Z,16.93
2019-01-27T12:22:45.589Z,16.50
2019-01-27T12:25:13.235Z,15.10
2019-01-27T12:27:40.833Z,15.63
2019-01-27T12:30:15.250Z,15.23
2019-01-27T12:32:43.140Z,17.07
2019-01-27T12:35:11.016Z,15.67
2019-01-27T12:37:38.883Z,16.27
2019-01-27T12:40:09.828Z,16.50
2019-01-27T12:42:37.703Z,15.57
2019-01-27T12:45:06.636Z,16.13
2019-01-27T12:47:34.547Z,15.93
2019-01-27T12:50:02.673Z,16.53
2019-01-27T12:52:30.707Z,19.03
2019-01-27T12:54:58.437Z,15.73
2019-01-27T12:57:26.351Z,16.60
2019-01-27T12:59:54.282Z,17.23
2019-01-27T13:02:22.195Z,19.40
2019-01-27T13:04:50.011Z,17.77
2019-01-27T13:07:17.703Z,15.43
2019-01-27T13:09:45.534Z,16.47
2019-01-27T13:12:13.242Z,17.80
2019-01-27T13:14:40.996Z,18.67
2019-01-27T13:17:08.607Z,18.00
2019-01-27T13:19:36.416Z,17.60
2019-01-27T13:22:06.431Z,19.00
2019-01-27T13:24:34.179Z,17.47
2019-01-27T13:27:02.494Z,16.60
2019-01-27T13:29:30.941Z,18.13
2019-01-27T13:31:59.061Z,17.43
2019-01-27T13:34:27.012Z,17.63
2019-01-27T13:36:54.856Z,19.57
2019-01-27T13:39:22.768Z,19.10
2019-01-27T13:41:50.750Z,18.23
2019-01-27T13:44:19.337Z,18.43
2019-01-27T13:46:47.403Z,16.27
2019-01-27T13:49:15.317Z,21.20
2019-01-27T13:51:43.500Z,16.50
2019-01-27T13:54:11.260Z,17.47
2019-01-27T13:56:39.239Z,20.37
2019-01-27T13:59:07.160Z,16.80
2019-01-27T14:01:34.900Z,17.53
2019-01-27T14:04:02.731Z,17.80
2019-01-27T14:06:30.660Z,18.47
2019-01-27T14:08:58.361Z,17.77
2019-01-27T14:11:26.267Z,17.70
2019-01-27T14:13:54.224Z,18.43
2019-01-27T14:16:22.228Z,16.83
2019-01-27T14:18:50.375Z,18.80
2019-01-27T14:21:18.117Z,18.23
2019-01-27T14:23:46.042Z,18.57
2019-01-27T14:26:13.976Z,16.73
2019-01-27T14:28:41.891Z,17.97
2019-01-27T14:31:09.784Z,16.93
2019-01-27T14:33:37.590Z,17.60
2019-01-27T14:36:05.516Z,19.27
2019-01-27T14:38:33.381Z,16.17
2019-01-27T14:41:01.052Z,18.07
2019-01-27T14:43:28.922Z,17.97
2019-01-27T14:45:56.950Z,17.40
2019-01-27T14:48:24.863Z,19.33
2019-01-27T14:50:52.686Z,18.53
2019-01-27T14:53:21.768Z,20.80
2019-01-27T14:55:49.659Z,20.43
2019-01-27T14:58:17.910Z,19.10
2019-01-27T15:00:49.295Z,21.27
2019-01-27T15:03:17.207Z,18.60
2019-01-27T15:05:46.152Z,17.77
2019-01-27T15:08:14.255Z,18.27
2019-01-27T15:10:43.127Z,21.43
2019-01-27T15:13:11.285Z,21.67
2019-01-27T15:15:39.428Z,19.73
2019-01-27T15:18:07.519Z,18.90
2019-01-27T15:20:44.085Z,18.47
2019-01-27T15:23:12.052Z,21.53
2019-01-27T15:25:40.491Z,20.40
2019-01-27T15:28:08.393Z,22.67
2019-01-27T15:30:36.363Z,22.13
2019-01-27T15:33:05.103Z,23.00
2019-01-27T15:35:33.022Z,20.93
2019-01-27T15:38:00.892Z,20.27
2019-01-27T15:40:28.917Z,19.27
2019-01-27T15:42:56.850Z,20.70
2019-01-27T15:45:26.321Z,22.73
2019-01-27T15:47:54.710Z,20.07
2019-01-27T15:50:25.217Z,21.17
2019-01-27T15:52:53.153Z,21.80
2019-01-27T15:55:23.719Z,19.80
2019-01-27T15:57:51.663Z,21.17
2019-01-27T16:00:24.293Z,21.30
2019-01-27T16:02:52.294Z,21.87
2019-01-27T16:05:23.074Z,25.77
2019-01-27T16:07:51.371Z,20.87
2019-01-27T16:10:26.013Z,21.53
2019-01-27T16:12:54.551Z,23.37
2019-01-27T16:15:26.445Z,23.73
2019-01-27T16:17:56.993Z,24.17
2019-01-27T16:20:28.223Z,21.97
2019-01-27T16:23:27.796Z,23.67
2019-01-27T16:25:56.949Z,21.67
2019-01-27T16:28:24.831Z,23.57
2019-01-27T16:31:10.802Z,23.13
2019-01-27T16:33:57.168Z,24.33
2019-01-27T16:36:25.536Z,21.93
2019-01-27T16:38:53.542Z,22.97
2019-01-27T16:41:22.091Z,23.40
2019-01-27T16:43:50.390Z,23.70
2019-01-27T16:46:18.523Z,203.40
2019-01-27T16:48:46.519Z,71.17
2019-01-27T16:51:14.479Z,27.93
2019-01-27T16:53:42.513Z,28.40
2019-01-27T16:56:10.457Z,24.73
2019-01-27T16:58:38.501Z,26.47
2019-01-27T17:01:06.653Z,24.13
2019-01-27T17:03:35.145Z,24.23
2019-01-27T17:06:03.151Z,27.40
2019-01-27T17:08:31.596Z,25.30
2019-01-27T17:10:59.981Z,24.63
2019-01-27T17:13:27.791Z,26.43
2019-01-27T17:15:55.789Z,25.03
2019-01-27T17:18:23.653Z,25.50
2019-01-27T17:20:51.698Z,28.47
2019-01-27T17:23:19.737Z,26.50
2019-01-27T17:25:47.623Z,25.97
2019-01-27T17:28:15.512Z,24.27
2019-01-27T17:30:43.694Z,24.43
2019-01-27T17:33:11.626Z,22.43
2019-01-27T17:35:39.447Z,22.70
2019-01-27T17:38:07.457Z,22.47
2019-01-27T17:40:35.405Z,25.83
2019-01-27T17:43:03.774Z,25.20
2019-01-27T17:45:31.790Z,26.90
2019-01-27T17:47:59.636Z,25.90
2019-01-27T17:50:27.972Z,24.40
2019-01-27T17:52:57.122Z,24.87
2019-01-27T17:55:41.606Z,28.13
2019-01-27T17:58:38.774Z,28.20
2019-01-27T18:01:44.517Z,28.60
2019-01-27T18:04:32.266Z,25.93
2019-01-27T18:07:22.602Z,26.73
2019-01-27T18:10:19.074Z,25.50
2019-01-27T18:12:57.918Z,26.00
2019-01-27T18:15:25.925Z,26.57
2019-01-27T18:17:53.898Z,28.87
2019-01-27T18:20:21.833Z,29.00
2019-01-27T18:22:50.320Z,27.70
2019-01-27T18:25:18.295Z,25.63
2019-01-27T18:27:46.374Z,25.30
2019-01-27T18:30:17.755Z,25.83
2019-01-27T18:32:46.109Z,24.13
2019-01-27T18:35:14.476Z,25.67
2019-01-27T18:37:42.471Z,26.83
2019-01-27T18:40:12.706Z,29.70
2019-01-27T18:42:42.634Z,33.67
2019-01-27T18:45:12.096Z,30.87
2019-01-27T18:47:40.439Z,28.90
2019-01-27T18:50:10.826Z,27.43
2019-01-27T18:52:39.927Z,26.73
2019-01-27T18:55:30.585Z,27.70
2019-01-27T18:58:19.395Z,29.53
2019-01-27T19:01:06.814Z,29.40
2019-01-27T19:03:52.802Z,29.73
2019-01-27T19:06:39.090Z,28.93
2019-01-27T19:09:34.518Z,28.00
2019-01-27T19:12:24.620Z,29.77
2019-01-27T19:15:14.609Z,31.77
2019-01-27T19:18:07.901Z,35.93
2019-01-27T19:20:46.711Z,35.47
2019-01-27T19:23:31.609Z,34.40
2019-01-27T19:26:17.811Z,31.20
2019-01-27T19:29:20.487Z,30.00
2019-01-27T19:32:11.303Z,40.73
2019-01-27T19:34:58.798Z,37.80
2019-01-27T19:37:43.484Z,33.23
2019-01-27T19:40:36.255Z,30.33
2019-01-27T19:43:14.120Z,28.30
2019-01-27T19:45:49.657Z,25.23
2019-01-27T19:48:31.369Z,26.53
2019-01-27T19:51:18.809Z,28.73
2019-01-27T19:54:08.908Z,26.83
2019-01-27T19:56:56.373Z,26.40
2019-01-27T19:59:42.326Z,28.87
2019-01-27T20:02:29.895Z,26.43
2019-01-27T20:05:23.201Z,27.97
2019-01-27T20:08:03.983Z,26.80
2019-01-27T20:10:51.396Z,24.60
2019-01-27T20:13:29.187Z,28.53
2019-01-27T20:16:03.866Z,27.37
2019-01-27T20:18:44.910Z,29.03
2019-01-27T20:21:32.370Z,25.73
2019-01-27T20:24:34.711Z,25.37
2019-01-27T20:27:24.699Z,27.50
2019-01-27T20:30:19.079Z,24.93
2019-01-27T20:33:04.123Z,26.10
2019-01-27T20:36:00.694Z,23.27
2019-01-27T20:38:39.222Z,30.03
2019-01-27T20:41:13.031Z,33.63
2019-01-27T20:44:07.613Z,30.53
2019-01-27T20:46:55.368Z,30.47
2019-01-27T20:49:40.072Z,30.67
2019-01-27T20:52:17.597Z,29.43
2019-01-27T20:55:14.735Z,26.20
2019-01-27T20:57:53.817Z,30.93
2019-01-27T21:00:40.338Z,29.40
2019-01-27T21:03:30.181Z,29.57
2019-01-27T21:06:20.000Z,29.37
2019-01-27T21:09:05.627Z,29.33
2019-01-27T21:12:11.367Z,31.30
2019-01-27T21:15:01.545Z,28.13
2019-01-27T21:17:35.550Z,29.70
2019-01-27T21:20:12.024Z,30.83
2019-01-27T21:22:39.786Z,30.43
2019-01-27T21:25:09.409Z,33.07
2019-01-27T21:27:37.327Z,30.53
2019-01-27T21:30:07.531Z,31.30
2019-01-27T21:32:35.307Z,29.40
2019-01-27T21:35:03.849Z,28.00
2019-01-27T21:37:31.599Z,27.60
2019-01-27T21:39:59.340Z,28.40
2019-01-27T21:42:27.892Z,25.80
2019-01-27T21:44:55.549Z,27.87
2019-01-27T21:47:23.177Z,30.33
2019-01-27T21:49:50.828Z,27.33
2019-01-27T21:52:18.527Z,28.47
2019-01-27T21:54:46.041Z,30.50
2019-01-27T21:57:13.712Z,32.13
2019-01-27T21:59:41.187Z,32.33
2019-01-27T22:02:08.768Z,31.90
2019-01-27T22:04:36.329Z,34.17
2019-01-27T22:07:04.008Z,31.33
2019-01-27T22:09:31.451Z,31.03
2019-01-27T22:11:59.007Z,29.37
2019-01-27T22:14:26.389Z,31.37
2019-01-27T22:16:53.807Z,33.97
2019-01-27T22:19:21.188Z,30.17
2019-01-27T22:21:48.557Z,29.57
2019-01-27T22:24:17.050Z,33.23
2019-01-27T22:26:44.426Z,28.57
2019-01-27T22:29:11.769Z,30.10
2019-01-27T22:31:39.187Z,29.07
2019-01-27T22:34:06.613Z,29.43
2019-01-27T22:36:33.961Z,28.83
2019-01-27T22:39:01.374Z,31.07
2019-01-27T22:41:28.767Z,30.00
2019-01-27T22:43:56.277Z,29.67
2019-01-27T22:46:23.716Z,27.27
2019-01-27T22:48:51.095Z,28.07
2019-01-27T22:51:18.549Z,24.90
2019-01-27T22:53:46.007Z,26.97
2019-01-27T22:56:13.427Z,28.87
2019-01-27T22:58:40.837Z,28.50
2019-01-27T23:01:13.176Z,27.87
2019-01-27T23:03:43.436Z,31.30
2019-01-27T23:06:10.899Z,31.53
2019-01-27T23:08:38.293Z,34.53
2019-01-27T23:11:05.723Z,36.20
2019-01-27T23:13:33.148Z,32.33
2019-01-27T23:16:00.626Z,38.23
2019-01-27T23:18:27.968Z,35.90
2019-01-27T23:20:55.351Z,36.20
2019-01-27T23:23:22.727Z,36.03
2019-01-27T23:25:50.545Z,38.63
2019-01-27T23:28:18.027Z,37.70
2019-01-27T23:30:45.387Z,36.67
2019-01-27T23:33:12.766Z,36.73
2019-01-27T23:35:40.200Z,39.40
2019-01-27T23:38:07.596Z,36.50
2019-01-27T23:40:35.053Z,40.63
2019-01-27T23:43:02.496Z,36.87
2019-01-27T23:45:29.995Z,37.70
2019-01-27T23:47:57.688Z,37.70
2019-01-27T23:50:25.146Z,32.60
2019-01-27T23:52:52.513Z,32.90
2019-01-27T23:55:19.866Z,35.73
2019-01-27T23:57:47.287Z,31.70
